• Join FlightAware (Why Join?)
  • Login
  • US Flag 
03:58PM EST


 

Airport Tracker/Info


-or-


 

Live Flight TrackerFlight Track Log ✈ ASQ5745 ✈ 04-Mar-2014 ✈ KIAD - KALB

Flight Track Log - Related Links

Times and Time Zones

All times are in EST time to prevent confusion due to time zone crossing. See the ASQ5745 flight status page for this flight to view local times or setup timezone preferences in your user account.

Time Position Orientation Groundspeed Altitude Reporting Facility
EST Latitude Longitude Course Direction KTS MPH feet Rate Location/Type
05:48PM 39.0000 -77.4500 North 232 267 2,900  Level Potomac TRACON
05:51PM 39.1722 -77.4469 North 273 314 10,100 2,820 Climbing Washington Center
05:53PM 39.3347 -77.4511 359° North 273 314 15,400 2,220 Climbing Washington Center
05:54PM 39.5510 -77.4500 North  Level FlightAware Approximate
05:54PM 39.4264 -77.4536 359° North 295 339 16,800  Level Washington Center
05:55PM 39.5283 -77.4561 359° North 332 382 17,600 1,200 Climbing Washington Center
05:56PM 39.6989 -77.4575 360° North 390 449 19,900 1,440 Climbing New York Center
05:57PM 39.8047 -77.4269 13° North 390 449 21,400 1,440 Climbing New York Center
05:58PM 39.9053 -77.3472 31° Northeast 391 450 22,800 1,200 Climbing New York Center
05:59PM 40.0094 -77.2703 29° Northeast 412 474 23,800 960 Climbing New York Center
06:00PM 40.1189 -77.2153 21° North 424 488 24,800 900 Climbing New York Center
06:01PM 40.2411 -77.1506 22° Northeast 424 488 25,700 660 Climbing New York Center
06:02PM 40.3589 -77.0933 20° North 434 499 26,200 480 Climbing New York Center
06:03PM 40.4769 -77.0331 21° North 440 506 26,700 480 Climbing New York Center
06:04PM 40.5969 -76.9703 22° Northeast 451 519 27,200 480 Climbing New York Center
06:05PM 40.7147 -76.9069 22° Northeast 451 519 27,700 480 Climbing New York Center
06:06PM 40.8347 -76.8464 21° North 451 519 28,200 480 Climbing New York Center
06:07PM 40.9544 -76.7828 22° Northeast 451 519 28,700 360 Climbing New York Center
06:08PM 41.0722 -76.7217 21° North 451 519 29,000 120 Climbing New York Center
06:09PM 41.1942 -76.6578 22° Northeast 451 519 29,000 -60 Level New York Center
06:10PM 41.3183 -76.5914 22° Northeast 461 531 28,900 -600 Descending New York Center
06:11PM 41.4422 -76.5300 20° North 467 537 27,900 -960 Descending New York Center
06:12PM 41.5664 -76.4603 23° Northeast 467 537 27,000 -360 Descending New York Center
06:14PM 41.7611 -76.3536 22° Northeast 474 545 27,000  Level Boston Center
06:15PM 41.8831 -76.2883 22° Northeast 472 543 27,000 -720 Level Boston Center
06:16PM 42.0089 -76.2200 22° Northeast 480 552 25,600 -1,380 Descending Boston Center
06:17PM 42.1292 -76.1514 23° Northeast 478 550 24,200 -840 Descending Boston Center
06:18PM 42.2064 -75.9975 56° Northeast 499 574 24,000 -120 Descending Boston Center
06:19PM 42.2672 -75.8275 64° Northeast 504 580 24,000  Level Boston Center
06:20PM 42.3297 -75.6194 68° East 501 577 24,000 -900 Level Boston Center
06:21PM 42.3722 -75.4378 72° East 507 583 22,200 -1,920 Descending Boston Center
06:22PM 42.4144 -75.2594 72° East 503 579 20,100 -2,100 Descending Boston Center
06:23PM 42.4553 -75.0886 72° East 485 558 18,000 -1,860 Descending Boston Center
06:24PM 42.4942 -74.9239 72° East 467 537 16,300 -1,920 Descending Boston Center
06:25PM 42.5264 -74.7800 73° East 453 521 14,600 -2,220 Descending Boston Center
06:25PM 42.5347 -74.7403 74° East 457 526 14,100 -1,920 Descending Boston Center
06:26PM 42.5633 -74.6211 72° East 444 511 12,700 -1,860 Descending Boston Center
06:26PM 42.5722 -74.5828 73° East 441 507 12,200 -1,740 Descending Boston Center
06:27PM 42.5997 -74.4650 72° East 433 498 11,000 -1,200 Descending Boston Center
06:27PM 42.6089 -74.4150 76° East 432 497 11,000 -300 Level Boston Center
06:28PM 42.5967 -74.3211 100° East 365 420 10,700 -600 Descending Boston Center
06:28PM 42.5947 -74.2794 94° East 356 410 10,400 -1,980 Descending Boston Center
06:29PM 42.5831 -74.1883 100° East 315 362 8,700 -2,460 Descending Boston Center
06:29PM 42.5817 -74.1575 93° East 329 379 7,900 -2,520 Descending Boston Center
06:30PM 42.5694 -74.0347 98° East 309 356 5,500 -2,220 Descending Boston Center
06:31PM 42.5667 -73.9647 93° East 277 319 4,100 -1,800 Descending Boston Center
06:31PM 42.5675 -73.9311 88° East 276 318 3,700 -1,320 Descending Boston Center
06:32PM 42.5672 -73.8689 90° East 236 272 2,800 -1,260 Descending Boston Center
06:32PM 42.5703 -73.8417 81° East 241 277 2,400 -840 Descending Boston Center
06:33PM 42.5997 -73.8100 38° Northeast 203 234 2,000 -540 Descending Boston Center
06:33PM 42.6219 -73.8011 16° North 205 236 1,900 -120 Descending Boston Center
06:34PM 42.6506 -73.8011 360° North 158 182 1,900 -120 Level Boston Center
06:34PM 42.6650 -73.8011 360° North 159 183 1,800 -600 Descending Boston Center
06:35PM 42.6892 -73.8025 358° North 124 143 1,300 -720 Descending Boston Center
06:35PM 42.7022 -73.8028 359° North 137 158 1,100 -840 Descending Boston Center
06:36PM 42.7256 -73.8031 359° North 134 154 500 -900 Descending Boston Center
06:37PM 42.7417 -73.8044 356° North 135 155 200 -900 Descending Boston Center